sensor_id;sensor_type;location;lat;lon;timestamp;pressure;altitude;pressure_sealevel;temperature;humidity
76128;BME280;64873;50.102;14.434;2023-08-21T00:02:15;99775.03;;;24.16;71.18
76128;BME280;64873;50.102;14.434;2023-08-21T00:04:40;99786.91;;;24.06;71.56
76128;BME280;64873;50.102;14.434;2023-08-21T00:07:05;99777.72;;;23.97;71.99
76128;BME280;64873;50.102;14.434;2023-08-21T00:09:31;99774.53;;;23.90;72.40
76128;BME280;64873;50.102;14.434;2023-08-21T00:11:57;99782.44;;;23.91;72.49
76128;BME280;64873;50.102;14.434;2023-08-21T00:14:22;99782.78;;;23.85;72.91
76128;BME280;64873;50.102;14.434;2023-08-21T00:16:47;99778.00;;;23.77;73.57
76128;BME280;64873;50.102;14.434;2023-08-21T00:19:12;99773.84;;;23.79;73.67
76128;BME280;64873;50.102;14.434;2023-08-21T00:21:38;99773.69;;;23.71;73.62
76128;BME280;64873;50.102;14.434;2023-08-21T00:24:03;99772.97;;;23.60;74.31
76128;BME280;64873;50.102;14.434;2023-08-21T00:26:28;99775.88;;;23.68;74.02
76128;BME280;64873;50.102;14.434;2023-08-21T00:28:53;99769.41;;;23.64;74.05
76128;BME280;64873;50.102;14.434;2023-08-21T00:31:19;99777.63;;;23.59;74.64
76128;BME280;64873;50.102;14.434;2023-08-21T00:33:44;99775.41;;;23.61;74.44
76128;BME280;64873;50.102;14.434;2023-08-21T00:36:09;99769.69;;;23.63;74.34
76128;BME280;64873;50.102;14.434;2023-08-21T00:38:35;99771.09;;;23.55;74.74
76128;BME280;64873;50.102;14.434;2023-08-21T00:41:00;99778.97;;;23.33;75.78
76128;BME280;64873;50.102;14.434;2023-08-21T00:43:25;99770.28;;;23.31;75.72
76128;BME280;64873;50.102;14.434;2023-08-21T00:45:50;99768.41;;;23.26;76.09
76128;BME280;64873;50.102;14.434;2023-08-21T00:48:16;99775.84;;;23.21;76.26
76128;BME280;64873;50.102;14.434;2023-08-21T00:50:42;99769.91;;;23.13;76.74
76128;BME280;64873;50.102;14.434;2023-08-21T00:53:08;99763.31;;;23.20;76.52
76128;BME280;64873;50.102;14.434;2023-08-21T00:55:33;99757.63;;;23.16;76.83
76128;BME280;64873;50.102;14.434;2023-08-21T00:57:59;99762.50;;;23.19;76.70
76128;BME280;64873;50.102;14.434;2023-08-21T01:00:25;99766.44;;;23.32;75.90
76128;BME280;64873;50.102;14.434;2023-08-21T01:02:50;99765.34;;;23.57;75.11
76128;BME280;64873;50.102;14.434;2023-08-21T01:05:17;99766.41;;;23.37;75.65
76128;BME280;64873;50.102;14.434;2023-08-21T01:07:47;99765.88;;;23.59;74.78
76128;BME280;64873;50.102;14.434;2023-08-21T01:10:16;99772.16;;;23.59;74.86
76128;BME280;64873;50.102;14.434;2023-08-21T01:15:20;99772.50;;;23.29;76.39
76128;BME280;64873;50.102;14.434;2023-08-21T01:17:45;99776.19;;;23.38;75.76
76128;BME280;64873;50.102;14.434;2023-08-21T01:20:11;99773.31;;;23.29;76.25
76128;BME280;64873;50.102;14.434;2023-08-21T01:22:37;99777.41;;;23.27;76.31
76128;BME280;64873;50.102;14.434;2023-08-21T01:25:03;99778.28;;;23.22;76.59
76128;BME280;64873;50.102;14.434;2023-08-21T01:27:29;99779.16;;;23.18;76.36
76128;BME280;64873;50.102;14.434;2023-08-21T01:29:55;99777.03;;;23.09;77.12
76128;BME280;64873;50.102;14.434;2023-08-21T01:32:21;99785.72;;;23.17;76.86
76128;BME280;64873;50.102;14.434;2023-08-21T01:34:49;99785.78;;;23.06;77.39
76128;BME280;64873;50.102;14.434;2023-08-21T01:37:15;99780.31;;;23.11;77.23
76128;BME280;64873;50.102;14.434;2023-08-21T01:39:42;99782.22;;;23.11;76.86
76128;BME280;64873;50.102;14.434;2023-08-21T01:42:07;99782.56;;;23.04;77.05
76128;BME280;64873;50.102;14.434;2023-08-21T01:44:32;99795.63;;;23.02;77.50
76128;BME280;64873;50.102;14.434;2023-08-21T01:46:57;99784.22;;;23.00;77.53
76128;BME280;64873;50.102;14.434;2023-08-21T01:49:23;99783.94;;;23.02;77.55
76128;BME280;64873;50.102;14.434;2023-08-21T01:51:48;99779.44;;;22.82;78.08
76128;BME280;64873;50.102;14.434;2023-08-21T01:54:13;99788.31;;;22.64;79.20
76128;BME280;64873;50.102;14.434;2023-08-21T01:56:38;99783.16;;;22.57;79.77
76128;BME280;64873;50.102;14.434;2023-08-21T01:59:04;99786.19;;;22.50;79.85
76128;BME280;64873;50.102;14.434;2023-08-21T02:01:29;99783.50;;;22.84;78.48
76128;BME280;64873;50.102;14.434;2023-08-21T02:03:55;99782.50;;;22.75;78.64
76128;BME280;64873;50.102;14.434;2023-08-21T02:06:20;99781.06;;;22.83;78.30
76128;BME280;64873;50.102;14.434;2023-08-21T02:08:45;99780.00;;;22.79;78.57
76128;BME280;64873;50.102;14.434;2023-08-21T02:11:10;99777.34;;;22.69;78.94
76128;BME280;64873;50.102;14.434;2023-08-21T02:13:36;99766.38;;;22.79;78.60
76128;BME280;64873;50.102;14.434;2023-08-21T02:16:01;99770.59;;;22.61;79.27
76128;BME280;64873;50.102;14.434;2023-08-21T02:18:26;99775.28;;;22.55;79.72
76128;BME280;64873;50.102;14.434;2023-08-21T02:20:52;99768.75;;;22.51;80.19
76128;BME280;64873;50.102;14.434;2023-08-21T02:23:17;99773.56;;;22.65;79.38
76128;BME280;64873;50.102;14.434;2023-08-21T02:25:42;99762.09;;;22.68;79.42
76128;BME280;64873;50.102;14.434;2023-08-21T02:28:07;99768.63;;;23.06;77.69
76128;BME280;64873;50.102;14.434;2023-08-21T02:30:33;99756.53;;;22.88;78.09
76128;BME280;64873;50.102;14.434;2023-08-21T02:32:58;99759.78;;;22.85;78.59
76128;BME280;64873;50.102;14.434;2023-08-21T02:35:24;99762.56;;;22.75;79.08
76128;BME280;64873;50.102;14.434;2023-08-21T02:37:49;99763.72;;;22.69;79.17
76128;BME280;64873;50.102;14.434;2023-08-21T02:40:14;99758.84;;;22.66;79.55
76128;BME280;64873;50.102;14.434;2023-08-21T02:42:39;99765.72;;;22.58;79.37
76128;BME280;64873;50.102;14.434;2023-08-21T02:45:05;99764.66;;;22.54;79.61
76128;BME280;64873;50.102;14.434;2023-08-21T02:47:39;99763.41;;;22.41;80.61
76128;BME280;64873;50.102;14.434;2023-08-21T02:50:05;99765.41;;;22.20;81.41
76128;BME280;64873;50.102;14.434;2023-08-21T02:52:31;99765.22;;;22.12;81.81
76128;BME280;64873;50.102;14.434;2023-08-21T02:54:56;99770.66;;;22.12;81.72
76128;BME280;64873;50.102;14.434;2023-08-21T02:57:22;99770.06;;;22.20;81.15
76128;BME280;64873;50.102;14.434;2023-08-21T02:59:48;99773.28;;;22.27;80.69
76128;BME280;64873;50.102;14.434;2023-08-21T03:02:13;99776.00;;;22.27;80.39
76128;BME280;64873;50.102;14.434;2023-08-21T03:04:38;99779.78;;;22.31;80.40
76128;BME280;64873;50.102;14.434;2023-08-21T03:07:04;99780.94;;;22.20;81.00
76128;BME280;64873;50.102;14.434;2023-08-21T03:09:29;99783.66;;;22.25;80.57
76128;BME280;64873;50.102;14.434;2023-08-21T03:11:54;99781.75;;;22.20;80.30
76128;BME280;64873;50.102;14.434;2023-08-21T03:14:19;99784.78;;;22.14;81.03
76128;BME280;64873;50.102;14.434;2023-08-21T03:16:45;99782.00;;;22.29;80.10
76128;BME280;64873;50.102;14.434;2023-08-21T03:19:10;99772.81;;;22.09;81.32
76128;BME280;64873;50.102;14.434;2023-08-21T03:21:35;99782.06;;;22.14;80.85
76128;BME280;64873;50.102;14.434;2023-08-21T03:24:00;99788.56;;;22.23;80.57
76128;BME280;64873;50.102;14.434;2023-08-21T03:26:26;99790.19;;;22.24;80.15
76128;BME280;64873;50.102;14.434;2023-08-21T03:28:52;99790.25;;;22.03;81.13
76128;BME280;64873;50.102;14.434;2023-08-21T03:31:17;99798.19;;;21.95;81.41
76128;BME280;64873;50.102;14.434;2023-08-21T03:33:42;99808.19;;;22.04;80.91
76128;BME280;64873;50.102;14.434;2023-08-21T03:36:07;99801.69;;;22.11;80.11
76128;BME280;64873;50.102;14.434;2023-08-21T03:38:33;99808.19;;;22.20;79.62
76128;BME280;64873;50.102;14.434;2023-08-21T03:40:59;99810.38;;;22.13;79.62
76128;BME280;64873;50.102;14.434;2023-08-21T03:43:24;99808.78;;;22.12;79.60
76128;BME280;64873;50.102;14.434;2023-08-21T03:45:49;99808.78;;;22.12;79.74
76128;BME280;64873;50.102;14.434;2023-08-21T03:48:14;99810.09;;;22.09;79.78
76128;BME280;64873;50.102;14.434;2023-08-21T03:50:40;99810.69;;;22.11;79.85
76128;BME280;64873;50.102;14.434;2023-08-21T03:53:05;99807.16;;;22.00;80.29
76128;BME280;64873;50.102;14.434;2023-08-21T03:55:30;99800.91;;;22.00;80.46
76128;BME280;64873;50.102;14.434;2023-08-21T04:00:21;99801.19;;;21.93;80.70
76128;BME280;64873;50.102;14.434;2023-08-21T04:02:46;99803.88;;;21.98;80.34
76128;BME280;64873;50.102;14.434;2023-08-21T04:05:11;99795.22;;;21.86;80.91
76128;BME280;64873;50.102;14.434;2023-08-21T04:07:37;99788.47;;;21.78;81.17
76128;BME280;64873;50.102;14.434;2023-08-21T04:10:02;99794.50;;;21.70;81.63
76128;BME280;64873;50.102;14.434;2023-08-21T04:12:27;99788.44;;;21.83;81.23
76128;BME280;64873;50.102;14.434;2023-08-21T04:14:53;99792.28;;;21.77;80.94
76128;BME280;64873;50.102;14.434;2023-08-21T04:17:21;99795.81;;;21.78;81.26
76128;BME280;64873;50.102;14.434;2023-08-21T04:19:47;99790.41;;;21.68;81.67
76128;BME280;64873;50.102;14.434;2023-08-21T04:22:12;99794.50;;;21.65;81.82
76128;BME280;64873;50.102;14.434;2023-08-21T04:24:37;99795.78;;;21.88;80.78
76128;BME280;64873;50.102;14.434;2023-08-21T04:27:02;99795.19;;;21.96;80.22
76128;BME280;64873;50.102;14.434;2023-08-21T04:29:28;99800.03;;;22.09;79.74
76128;BME280;64873;50.102;14.434;2023-08-21T04:31:53;99806.59;;;22.03;79.80
76128;BME280;64873;50.102;14.434;2023-08-21T04:34:18;99805.19;;;22.16;79.71
76128;BME280;64873;50.102;14.434;2023-08-21T04:36:43;99813.09;;;22.07;79.46
76128;BME280;64873;50.102;14.434;2023-08-21T04:39:09;99807.69;;;21.97;79.94
76128;BME280;64873;50.102;14.434;2023-08-21T04:41:34;99805.06;;;21.82;80.97
76128;BME280;64873;50.102;14.434;2023-08-21T04:43:59;99803.97;;;21.78;81.34
76128;BME280;64873;50.102;14.434;2023-08-21T04:46:25;99803.41;;;21.81;81.27
76128;BME280;64873;50.102;14.434;2023-08-21T04:48:50;99798.25;;;21.79;81.42
76128;BME280;64873;50.102;14.434;2023-08-21T04:51:16;99802.06;;;21.78;81.13
76128;BME280;64873;50.102;14.434;2023-08-21T04:53:41;99809.94;;;21.85;80.92
76128;BME280;64873;50.102;14.434;2023-08-21T04:56:06;99812.09;;;21.88;80.59
76128;BME280;64873;50.102;14.434;2023-08-21T04:58:31;99810.41;;;22.02;79.87
76128;BME280;64873;50.102;14.434;2023-08-21T05:00:57;99813.13;;;21.97;79.94
76128;BME280;64873;50.102;14.434;2023-08-21T05:03:22;99818.84;;;22.01;79.48
76128;BME280;64873;50.102;14.434;2023-08-21T05:05:54;99821.75;;;22.30;78.64
76128;BME280;64873;50.102;14.434;2023-08-21T05:08:20;99817.97;;;22.21;78.22
76128;BME280;64873;50.102;14.434;2023-08-21T05:10:46;99822.63;;;22.10;79.10
76128;BME280;64873;50.102;14.434;2023-08-21T05:13:11;99819.09;;;22.15;78.41
76128;BME280;64873;50.102;14.434;2023-08-21T05:15:36;99825.63;;;22.08;79.08
76128;BME280;64873;50.102;14.434;2023-08-21T05:18:01;99829.97;;;22.15;78.71
76128;BME280;64873;50.102;14.434;2023-08-21T05:20:27;99826.91;;;22.26;78.04
76128;BME280;64873;50.102;14.434;2023-08-21T05:22:52;99823.38;;;22.26;78.12
76128;BME280;64873;50.102;14.434;2023-08-21T05:25:18;99835.59;;;22.33;77.74
76128;BME280;64873;50.102;14.434;2023-08-21T05:27:43;99829.88;;;22.35;77.43
76128;BME280;64873;50.102;14.434;2023-08-21T05:30:08;99832.59;;;22.40;77.27
76128;BME280;64873;50.102;14.434;2023-08-21T05:32:35;99839.06;;;22.49;76.80
76128;BME280;64873;50.102;14.434;2023-08-21T05:35:00;99837.91;;;22.60;76.25
76128;BME280;64873;50.102;14.434;2023-08-21T05:37:26;99829.84;;;22.79;75.75
76128;BME280;64873;50.102;14.434;2023-08-21T05:39:52;99837.72;;;22.91;75.69
76128;BME280;64873;50.102;14.434;2023-08-21T05:42:17;99838.03;;;23.19;74.69
76128;BME280;64873;50.102;14.434;2023-08-21T05:44:42;99840.16;;;23.22;74.75
76128;BME280;64873;50.102;14.434;2023-08-21T05:47:07;99841.66;;;23.38;74.26
76128;BME280;64873;50.102;14.434;2023-08-21T05:49:33;99848.47;;;23.40;74.42
76128;BME280;64873;50.102;14.434;2023-08-21T05:51:58;99846.13;;;23.29;74.90
76128;BME280;64873;50.102;14.434;2023-08-21T05:54:24;99843.41;;;23.29;73.78
76128;BME280;64873;50.102;14.434;2023-08-21T05:56:50;99853.50;;;22.94;75.69
76128;BME280;64873;50.102;14.434;2023-08-21T05:59:26;99851.00;;;23.32;74.18
76128;BME280;64873;50.102;14.434;2023-08-21T06:01:52;99850.97;;;23.37;74.05
76128;BME280;64873;50.102;14.434;2023-08-21T06:04:18;99851.47;;;23.39;73.75
76128;BME280;64873;50.102;14.434;2023-08-21T06:06:43;99863.00;;;23.31;73.97
76128;BME280;64873;50.102;14.434;2023-08-21T06:09:08;99865.44;;;23.32;74.03
76128;BME280;64873;50.102;14.434;2023-08-21T06:11:33;99853.16;;;23.35;74.06
76128;BME280;64873;50.102;14.434;2023-08-21T06:13:59;99865.56;;;23.51;73.89
76128;BME280;64873;50.102;14.434;2023-08-21T06:16:24;99858.66;;;23.59;73.49
76128;BME280;64873;50.102;14.434;2023-08-21T06:18:49;99856.44;;;23.66;73.26
76128;BME280;64873;50.102;14.434;2023-08-21T06:21:14;99853.31;;;23.78;72.99
76128;BME280;64873;50.102;14.434;2023-08-21T06:23:40;99859.22;;;23.85;72.66
76128;BME280;64873;50.102;14.434;2023-08-21T06:26:05;99864.53;;;23.76;72.44
76128;BME280;64873;50.102;14.434;2023-08-21T06:28:30;99863.00;;;23.89;72.17
76128;BME280;64873;50.102;14.434;2023-08-21T06:30:56;99870.16;;;23.85;72.31
76128;BME280;64873;50.102;14.434;2023-08-21T06:33:23;99868.41;;;23.70;72.75
76128;BME280;64873;50.102;14.434;2023-08-21T06:35:48;99870.06;;;23.66;72.83
76128;BME280;64873;50.102;14.434;2023-08-21T06:38:13;99876.94;;;23.58;73.31
76128;BME280;64873;50.102;14.434;2023-08-21T06:40:38;99879.13;;;23.56;73.38
76128;BME280;64873;50.102;14.434;2023-08-21T06:43:04;99875.28;;;23.62;73.35
76128;BME280;64873;50.102;14.434;2023-08-21T06:45:31;99874.06;;;23.45;73.96
76128;BME280;64873;50.102;14.434;2023-08-21T06:47:57;99869.81;;;23.62;73.09
76128;BME280;64873;50.102;14.434;2023-08-21T06:50:23;99867.06;;;23.67;73.13
76128;BME280;64873;50.102;14.434;2023-08-21T06:52:48;99864.28;;;23.73;73.04
76128;BME280;64873;50.102;14.434;2023-08-21T06:55:13;99864.41;;;23.57;73.86
76128;BME280;64873;50.102;14.434;2023-08-21T06:57:39;99871.25;;;23.84;72.62
76128;BME280;64873;50.102;14.434;2023-08-21T07:00:05;99870.78;;;24.01;72.03
76128;BME280;64873;50.102;14.434;2023-08-21T07:02:30;99869.63;;;24.07;71.91
76128;BME280;64873;50.102;14.434;2023-08-21T07:04:56;99878.69;;;24.02;71.98
76128;BME280;64873;50.102;14.434;2023-08-21T07:07:21;99876.75;;;24.27;71.16
76128;BME280;64873;50.102;14.434;2023-08-21T07:09:46;99874.56;;;24.29;70.90
76128;BME280;64873;50.102;14.434;2023-08-21T07:12:11;99875.41;;;24.48;69.77
76128;BME280;64873;50.102;14.434;2023-08-21T07:14:37;99870.13;;;24.76;69.30
76128;BME280;64873;50.102;14.434;2023-08-21T07:17:02;99874.97;;;24.79;68.98
76128;BME280;64873;50.102;14.434;2023-08-21T07:19:27;99876.00;;;24.83;68.89
76128;BME280;64873;50.102;14.434;2023-08-21T07:21:53;99873.72;;;24.90;68.12
76128;BME280;64873;50.102;14.434;2023-08-21T07:24:18;99864.69;;;24.89;68.56
76128;BME280;64873;50.102;14.434;2023-08-21T07:26:50;99865.19;;;24.91;68.48
76128;BME280;64873;50.102;14.434;2023-08-21T07:29:16;99871.06;;;25.04;67.64
76128;BME280;64873;50.102;14.434;2023-08-21T07:31:41;99870.47;;;24.88;68.57
76128;BME280;64873;50.102;14.434;2023-08-21T07:34:06;99869.78;;;24.96;67.97
76128;BME280;64873;50.102;14.434;2023-08-21T07:36:32;99878.31;;;24.76;68.65
76128;BME280;64873;50.102;14.434;2023-08-21T07:38:57;99889.25;;;24.76;68.88
76128;BME280;64873;50.102;14.434;2023-08-21T07:41:22;99885.47;;;24.71;68.69
76128;BME280;64873;50.102;14.434;2023-08-21T07:43:48;99880.63;;;24.68;69.06
76128;BME280;64873;50.102;14.434;2023-08-21T07:46:13;99877.13;;;24.82;68.36
76128;BME280;64873;50.102;14.434;2023-08-21T07:48:41;99877.06;;;24.87;68.24
76128;BME280;64873;50.102;14.434;2023-08-21T07:51:06;99877.63;;;24.84;68.40
76128;BME280;64873;50.102;14.434;2023-08-21T07:53:31;99874.44;;;24.95;68.32
76128;BME280;64873;50.102;14.434;2023-08-21T07:56:00;99874.53;;;25.09;67.94
76128;BME280;64873;50.102;14.434;2023-08-21T07:58:26;99870.84;;;25.33;66.82
76128;BME280;64873;50.102;14.434;2023-08-21T08:00:51;99865.53;;;25.55;66.20
76128;BME280;64873;50.102;14.434;2023-08-21T08:03:16;99875.63;;;25.73;65.33
76128;BME280;64873;50.102;14.434;2023-08-21T08:05:42;99864.31;;;25.80;64.84
76128;BME280;64873;50.102;14.434;2023-08-21T08:08:07;99869.09;;;25.56;65.83
76128;BME280;64873;50.102;14.434;2023-08-21T08:10:33;99881.00;;;25.78;65.58
76128;BME280;64873;50.102;14.434;2023-08-21T08:12:58;99876.34;;;25.79;65.24
76128;BME280;64873;50.102;14.434;2023-08-21T08:15:23;99878.91;;;25.43;66.70
76128;BME280;64873;50.102;14.434;2023-08-21T08:17:48;99876.22;;;25.57;66.26
76128;BME280;64873;50.102;14.434;2023-08-21T08:20:18;99872.03;;;25.59;65.95
76128;BME280;64873;50.102;14.434;2023-08-21T08:22:43;99881.94;;;26.01;64.94
76128;BME280;64873;50.102;14.434;2023-08-21T08:25:08;99873.75;;;26.15;64.06
76128;BME280;64873;50.102;14.434;2023-08-21T08:27:33;99872.88;;;26.56;62.67
76128;BME280;64873;50.102;14.434;2023-08-21T08:29:59;99873.72;;;26.43;63.25
76128;BME280;64873;50.102;14.434;2023-08-21T08:32:25;99869.56;;;26.81;61.81
76128;BME280;64873;50.102;14.434;2023-08-21T08:34:50;99873.03;;;26.73;61.35
76128;BME280;64873;50.102;14.434;2023-08-21T08:37:16;99873.00;;;26.51;62.09
76128;BME280;64873;50.102;14.434;2023-08-21T08:39:42;99871.53;;;26.67;61.18
76128;BME280;64873;50.102;14.434;2023-08-21T08:42:07;99872.81;;;26.83;60.66
76128;BME280;64873;50.102;14.434;2023-08-21T08:44:34;99872.03;;;26.69;61.81
76128;BME280;64873;50.102;14.434;2023-08-21T08:47:00;99866.63;;;26.78;61.41
76128;BME280;64873;50.102;14.434;2023-08-21T08:49:26;99862.53;;;26.53;61.58
76128;BME280;64873;50.102;14.434;2023-08-21T08:51:51;99863.44;;;26.84;61.01
76128;BME280;64873;50.102;14.434;2023-08-21T08:54:18;99872.94;;;27.46;59.15
76128;BME280;64873;50.102;14.434;2023-08-21T08:56:44;99874.47;;;27.07;60.12
76128;BME280;64873;50.102;14.434;2023-08-21T08:59:10;99873.00;;;27.32;59.51
76128;BME280;64873;50.102;14.434;2023-08-21T09:01:35;99868.47;;;27.05;60.19
76128;BME280;64873;50.102;14.434;2023-08-21T09:04:01;99862.88;;;27.10;59.79
76128;BME280;64873;50.102;14.434;2023-08-21T09:06:26;99870.69;;;27.48;58.87
76128;BME280;64873;50.102;14.434;2023-08-21T09:08:55;99870.97;;;27.69;58.28
76128;BME280;64873;50.102;14.434;2023-08-21T09:11:20;99871.06;;;27.55;58.38
76128;BME280;64873;50.102;14.434;2023-08-21T09:13:45;99874.69;;;27.42;59.50
76128;BME280;64873;50.102;14.434;2023-08-21T09:16:13;99866.66;;;27.45;58.90
76128;BME280;64873;50.102;14.434;2023-08-21T09:18:42;99862.19;;;27.58;58.71
76128;BME280;64873;50.102;14.434;2023-08-21T09:21:11;99867.09;;;27.39;59.46
76128;BME280;64873;50.102;14.434;2023-08-21T09:23:36;99867.34;;;27.28;60.39
76128;BME280;64873;50.102;14.434;2023-08-21T09:26:02;99862.94;;;27.19;59.98
76128;BME280;64873;50.102;14.434;2023-08-21T09:28:27;99860.97;;;26.97;60.69
76128;BME280;64873;50.102;14.434;2023-08-21T09:30:54;99864.81;;;26.96;60.97
76128;BME280;64873;50.102;14.434;2023-08-21T09:33:20;99863.50;;;27.07;60.57
76128;BME280;64873;50.102;14.434;2023-08-21T09:35:46;99857.19;;;27.29;59.72
76128;BME280;64873;50.102;14.434;2023-08-21T09:38:12;99859.59;;;27.30;58.94
76128;BME280;64873;50.102;14.434;2023-08-21T09:40:41;99849.44;;;27.31;59.39
76128;BME280;64873;50.102;14.434;2023-08-21T09:43:08;99847.44;;;27.00;60.63
76128;BME280;64873;50.102;14.434;2023-08-21T09:45:33;99855.75;;;26.73;61.69
76128;BME280;64873;50.102;14.434;2023-08-21T09:47:58;99853.91;;;26.82;60.72
76128;BME280;64873;50.102;14.434;2023-08-21T09:50:24;99845.28;;;27.11;59.01
76128;BME280;64873;50.102;14.434;2023-08-21T09:52:49;99846.56;;;27.36;58.84
76128;BME280;64873;50.102;14.434;2023-08-21T09:55:16;99843.13;;;27.30;59.19
76128;BME280;64873;50.102;14.434;2023-08-21T09:57:42;99839.25;;;27.31;58.83
76128;BME280;64873;50.102;14.434;2023-08-21T10:00:08;99839.25;;;27.31;59.49
76128;BME280;64873;50.102;14.434;2023-08-21T10:02:42;99834.66;;;27.41;59.28
76128;BME280;64873;50.102;14.434;2023-08-21T10:05:07;99837.47;;;27.58;58.81
76128;BME280;64873;50.102;14.434;2023-08-21T10:07:33;99841.84;;;27.59;57.76
76128;BME280;64873;50.102;14.434;2023-08-21T10:09:59;99828.50;;;27.44;57.94
76128;BME280;64873;50.102;14.434;2023-08-21T10:12:24;99825.03;;;27.60;57.38
76128;BME280;64873;50.102;14.434;2023-08-21T10:14:51;99829.47;;;27.70;57.01
76128;BME280;64873;50.102;14.434;2023-08-21T10:17:16;99829.38;;;27.53;58.11
76128;BME280;64873;50.102;14.434;2023-08-21T10:19:42;99825.16;;;27.47;58.18
76128;BME280;64873;50.102;14.434;2023-08-21T10:22:07;99822.88;;;27.49;58.25
76128;BME280;64873;50.102;14.434;2023-08-21T10:24:33;99823.53;;;27.46;58.93
76128;BME280;64873;50.102;14.434;2023-08-21T10:26:59;99830.19;;;27.53;58.26
76128;BME280;64873;50.102;14.434;2023-08-21T10:29:25;99824.75;;;27.62;57.27
76128;BME280;64873;50.102;14.434;2023-08-21T10:32:03;99827.50;;;27.62;58.57
76128;BME280;64873;50.102;14.434;2023-08-21T10:34:32;99817.84;;;27.73;57.82
76128;BME280;64873;50.102;14.434;2023-08-21T10:37:10;99818.22;;;27.80;57.35
76128;BME280;64873;50.102;14.434;2023-08-21T10:39:39;99820.22;;;28.06;56.96
76128;BME280;64873;50.102;14.434;2023-08-21T10:42:06;99825.25;;;28.04;56.41
76128;BME280;64873;50.102;14.434;2023-08-21T10:47:13;99817.34;;;28.20;56.13
76128;BME280;64873;50.102;14.434;2023-08-21T10:49:40;99819.34;;;28.36;55.37
76128;BME280;64873;50.102;14.434;2023-08-21T10:52:05;99813.34;;;28.34;55.79
76128;BME280;64873;50.102;14.434;2023-08-21T10:54:42;99808.59;;;28.09;56.13
76128;BME280;64873;50.102;14.434;2023-08-21T10:57:07;99816.44;;;28.41;55.33
76128;BME280;64873;50.102;14.434;2023-08-21T10:59:32;99815.28;;;28.34;55.56
76128;BME280;64873;50.102;14.434;2023-08-21T11:01:58;99815.13;;;28.48;55.35
76128;BME280;64873;50.102;14.434;2023-08-21T11:04:24;99811.91;;;28.46;55.36
76128;BME280;64873;50.102;14.434;2023-08-21T11:06:50;99805.44;;;28.50;54.49
76128;BME280;64873;50.102;14.434;2023-08-21T11:09:16;99809.00;;;28.42;55.27
76128;BME280;64873;50.102;14.434;2023-08-21T11:11:43;99804.41;;;28.20;55.35
76128;BME280;64873;50.102;14.434;2023-08-21T11:14:08;99807.72;;;28.39;54.79
76128;BME280;64873;50.102;14.434;2023-08-21T11:16:33;99803.81;;;28.40;54.51
76128;BME280;64873;50.102;14.434;2023-08-21T11:19:02;99808.66;;;28.43;54.78
76128;BME280;64873;50.102;14.434;2023-08-21T11:21:28;99809.16;;;28.54;54.52
76128;BME280;64873;50.102;14.434;2023-08-21T11:23:53;99812.69;;;28.89;53.63
76128;BME280;64873;50.102;14.434;2023-08-21T11:26:18;99808.34;;;28.88;53.39
76128;BME280;64873;50.102;14.434;2023-08-21T11:28:43;99806.56;;;29.01;53.05
76128;BME280;64873;50.102;14.434;2023-08-21T11:31:09;99801.53;;;28.77;53.86
76128;BME280;64873;50.102;14.434;2023-08-21T11:33:36;99802.19;;;28.91;53.22
76128;BME280;64873;50.102;14.434;2023-08-21T11:36:02;99804.81;;;28.97;53.68
76128;BME280;64873;50.102;14.434;2023-08-21T11:38:27;99796.69;;;29.09;53.30
76128;BME280;64873;50.102;14.434;2023-08-21T11:43:21;99793.25;;;29.20;51.52
76128;BME280;64873;50.102;14.434;2023-08-21T11:45:47;99801.38;;;29.08;51.80
76128;BME280;64873;50.102;14.434;2023-08-21T11:48:12;99797.16;;;29.11;51.06
76128;BME280;64873;50.102;14.434;2023-08-21T11:50:37;99790.97;;;29.23;50.27
76128;BME280;64873;50.102;14.434;2023-08-21T11:53:03;99794.13;;;29.42;49.52
76128;BME280;64873;50.102;14.434;2023-08-21T11:55:29;99790.34;;;29.17;50.09
76128;BME280;64873;50.102;14.434;2023-08-21T11:57:54;99783.63;;;29.35;49.61
76128;BME280;64873;50.102;14.434;2023-08-21T12:00:26;99788.69;;;29.33;51.17
76128;BME280;64873;50.102;14.434;2023-08-21T12:02:55;99786.56;;;29.30;49.35
76128;BME280;64873;50.102;14.434;2023-08-21T12:05:24;99782.56;;;29.66;47.92
76128;BME280;64873;50.102;14.434;2023-08-21T12:07:49;99779.41;;;29.85;47.60
76128;BME280;64873;50.102;14.434;2023-08-21T12:10:21;99776.59;;;29.93;47.87
76128;BME280;64873;50.102;14.434;2023-08-21T12:12:46;99777.44;;;29.85;47.72
76128;BME280;64873;50.102;14.434;2023-08-21T12:15:12;99769.00;;;29.90;48.19
76128;BME280;64873;50.102;14.434;2023-08-21T12:17:37;99773.47;;;29.74;48.44
76128;BME280;64873;50.102;14.434;2023-08-21T12:20:02;99772.34;;;29.66;48.40
76128;BME280;64873;50.102;14.434;2023-08-21T12:22:35;99760.72;;;29.90;48.04
76128;BME280;64873;50.102;14.434;2023-08-21T12:25:00;99751.84;;;29.85;48.66
76128;BME280;64873;50.102;14.434;2023-08-21T12:27:26;99753.47;;;29.86;47.75
76128;BME280;64873;50.102;14.434;2023-08-21T12:29:51;99757.59;;;29.71;49.18
76128;BME280;64873;50.102;14.434;2023-08-21T12:32:16;99760.56;;;29.87;48.46
76128;BME280;64873;50.102;14.434;2023-08-21T12:34:41;99753.56;;;29.89;48.15
76128;BME280;64873;50.102;14.434;2023-08-21T12:37:07;99753.63;;;30.10;47.58
76128;BME280;64873;50.102;14.434;2023-08-21T12:39:32;99750.38;;;29.87;48.83
76128;BME280;64873;50.102;14.434;2023-08-21T12:41:57;99745.03;;;30.12;47.19
76128;BME280;64873;50.102;14.434;2023-08-21T12:44:23;99755.31;;;29.73;50.29
76128;BME280;64873;50.102;14.434;2023-08-21T12:46:48;99742.50;;;29.98;50.24
76128;BME280;64873;50.102;14.434;2023-08-21T12:49:13;99750.22;;;29.45;49.50
76128;BME280;64873;50.102;14.434;2023-08-21T12:51:38;99737.47;;;30.00;48.95
76128;BME280;64873;50.102;14.434;2023-08-21T12:54:04;99737.47;;;30.00;49.29